createdAt,value
2023-03-16T00:00:54.959Z,60.73
2023-03-16T00:03:22.077Z,57.63
2023-03-16T00:05:53.407Z,56.64
2023-03-16T00:08:21.283Z,55.36
2023-03-16T00:10:48.885Z,54.65
2023-03-16T00:13:21.695Z,55.45
2023-03-16T00:16:05.514Z,55.50
2023-03-16T00:18:38.810Z,56.62
2023-03-16T00:21:06.756Z,55.14
2023-03-16T00:23:36.132Z,54.45
2023-03-16T00:26:13.427Z,54.77
2023-03-16T00:28:42.738Z,54.34
2023-03-16T00:31:12.388Z,54.81
2023-03-16T00:33:39.988Z,54.62
2023-03-16T00:36:09.697Z,55.10
2023-03-16T00:38:39.665Z,55.26
2023-03-16T00:41:09.498Z,54.80
2023-03-16T00:43:44.904Z,54.56
2023-03-16T00:46:17.871Z,54.88
2023-03-16T00:48:47.348Z,54.93
2023-03-16T00:51:17.101Z,55.24
2023-03-16T00:53:46.950Z,55.24
2023-03-16T00:56:14.237Z,55.63
2023-03-16T00:58:43.208Z,55.08
2023-03-16T01:01:19.144Z,54.16
2023-03-16T01:03:47.331Z,55.94
2023-03-16T01:06:18.121Z,56.13
2023-03-16T01:08:48.194Z,54.71
2023-03-16T01:11:19.716Z,57.55
2023-03-16T01:13:47.799Z,56.34
2023-03-16T01:16:15.902Z,56.29
2023-03-16T01:18:43.229Z,55.52
2023-03-16T01:21:14.109Z,54.32
2023-03-16T01:23:43.901Z,55.33
2023-03-16T01:26:15.260Z,56.84
2023-03-16T01:28:44.319Z,59.69
2023-03-16T01:31:17.156Z,59.70
2023-03-16T01:33:44.446Z,59.63
2023-03-16T01:36:18.366Z,58.65
2023-03-16T01:39:00.735Z,60.96
2023-03-16T01:41:33.402Z,60.37
2023-03-16T01:44:00.627Z,61.31
2023-03-16T01:46:32.248Z,60.24
2023-03-16T01:49:35.729Z,61.00
2023-03-16T01:52:08.752Z,57.19
2023-03-16T01:55:03.106Z,57.85
2023-03-16T01:57:37.171Z,57.13
2023-03-16T02:00:20.167Z,57.35
2023-03-16T02:03:13.889Z,57.04
2023-03-16T02:05:54.571Z,56.56
2023-03-16T02:08:25.612Z,56.14
2023-03-16T02:10:56.670Z,54.75
2023-03-16T02:13:34.297Z,55.77
2023-03-16T02:16:02.009Z,57.54
2023-03-16T02:18:29.178Z,57.39
2023-03-16T02:21:19.484Z,56.70
2023-03-16T02:23:47.655Z,55.22
2023-03-16T02:26:23.098Z,54.99
2023-03-16T02:29:19.083Z,54.79
2023-03-16T02:31:48.064Z,54.97
2023-03-16T02:34:17.344Z,54.84
2023-03-16T02:36:46.762Z,54.99
2023-03-16T02:39:14.789Z,54.52
2023-03-16T02:41:47.698Z,54.58
2023-03-16T02:44:37.846Z,54.43
2023-03-16T02:47:24.351Z,54.20
2023-03-16T02:49:51.581Z,54.34
2023-03-16T02:52:18.656Z,54.84
2023-03-16T02:54:47.221Z,55.10
2023-03-16T02:57:14.912Z,55.61
2023-03-16T02:59:42.204Z,54.37
2023-03-16T03:02:12.268Z,54.39
2023-03-16T03:04:39.997Z,55.00
2023-03-16T03:07:07.835Z,55.53
2023-03-16T03:09:53.652Z,55.17
2023-03-16T03:12:21.089Z,54.51
2023-03-16T03:14:48.066Z,54.11
2023-03-16T03:17:18.144Z,54.46
2023-03-16T03:19:45.770Z,53.89
2023-03-16T03:22:12.884Z,53.85
2023-03-16T03:24:39.745Z,54.21
2023-03-16T03:27:06.978Z,53.80
2023-03-16T03:29:36.993Z,54.00
2023-03-16T03:32:05.725Z,53.86
2023-03-16T03:34:33.350Z,53.96
2023-03-16T03:37:01.423Z,53.37
2023-03-16T03:39:29.212Z,54.93
2023-03-16T03:41:56.293Z,55.86
2023-03-16T03:44:27.061Z,56.64
2023-03-16T03:46:55.576Z,57.17
2023-03-16T03:49:28.335Z,56.35
2023-03-16T03:51:56.741Z,56.46
2023-03-16T03:54:26.568Z,55.03
2023-03-16T03:56:58.230Z,54.96
2023-03-16T03:59:26.120Z,54.50
2023-03-16T04:02:18.209Z,54.63
2023-03-16T04:04:54.294Z,54.68
2023-03-16T04:07:21.224Z,55.32
2023-03-16T04:09:50.797Z,55.50
2023-03-16T04:12:33.082Z,55.54
2023-03-16T04:15:00.627Z,56.92
2023-03-16T04:17:34.514Z,55.78
2023-03-16T04:20:13.496Z,55.28
2023-03-16T04:22:45.476Z,55.47
2023-03-16T04:25:15.577Z,54.13
2023-03-16T04:27:44.045Z,55.15
2023-03-16T04:30:13.963Z,55.31
2023-03-16T04:32:55.704Z,55.25
2023-03-16T04:35:26.626Z,56.32
2023-03-16T04:37:57.704Z,55.73
2023-03-16T04:40:33.761Z,55.33
2023-03-16T04:43:08.545Z,55.25
2023-03-16T04:45:37.216Z,54.70
2023-03-16T04:48:04.449Z,53.77
2023-03-16T04:50:31.614Z,55.06
2023-03-16T04:52:58.623Z,55.11
2023-03-16T04:55:29.459Z,54.99
2023-03-16T04:57:58.881Z,54.13
2023-03-16T05:00:28.607Z,54.52
2023-03-16T05:03:28.210Z,54.14
2023-03-16T05:05:55.993Z,54.88
2023-03-16T05:08:25.388Z,54.77
2023-03-16T05:11:00.256Z,54.23
2023-03-16T05:13:33.064Z,54.61
2023-03-16T05:16:04.023Z,53.95
2023-03-16T05:18:36.715Z,54.42
2023-03-16T05:21:05.927Z,54.32
2023-03-16T05:23:45.720Z,54.56
2023-03-16T05:26:16.700Z,54.64
2023-03-16T05:28:48.209Z,54.47
2023-03-16T05:31:23.598Z,54.14
2023-03-16T05:33:56.331Z,54.52
2023-03-16T05:36:25.690Z,54.42
2023-03-16T05:38:58.797Z,55.00
2023-03-16T05:41:35.473Z,54.30
2023-03-16T05:44:25.384Z,54.28
2023-03-16T05:47:18.834Z,53.97
2023-03-16T05:50:07.303Z,54.47
2023-03-16T05:52:40.663Z,55.27
2023-03-16T05:55:18.557Z,55.08
2023-03-16T05:57:52.258Z,55.26
2023-03-16T06:00:20.934Z,55.49
2023-03-16T06:02:56.490Z,55.38
2023-03-16T06:05:29.823Z,54.86
2023-03-16T06:07:57.051Z,54.88
2023-03-16T06:10:27.507Z,55.17
2023-03-16T06:12:55.872Z,55.95
2023-03-16T06:15:25.508Z,58.08
2023-03-16T06:17:54.847Z,57.09
2023-03-16T06:20:22.688Z,57.93
2023-03-16T06:22:50.913Z,58.45
2023-03-16T06:25:18.552Z,58.67
2023-03-16T06:27:49.790Z,58.34
2023-03-16T06:30:22.600Z,57.75
2023-03-16T06:32:50.233Z,58.27
2023-03-16T06:35:17.577Z,56.83
2023-03-16T06:37:55.675Z,55.89
2023-03-16T06:40:46.445Z,55.25
2023-03-16T06:43:14.262Z,55.82
2023-03-16T06:45:44.266Z,55.26
2023-03-16T06:48:12.053Z,55.19
2023-03-16T06:50:39.631Z,55.60
2023-03-16T06:53:08.301Z,54.79
2023-03-16T06:55:37.296Z,55.13
2023-03-16T06:58:04.984Z,57.52
2023-03-16T07:00:34.270Z,59.12
2023-03-16T07:03:05.182Z,60.11
2023-03-16T07:05:35.460Z,59.10
2023-03-16T07:08:07.971Z,59.83
2023-03-16T07:10:36.658Z,60.70
2023-03-16T07:13:04.576Z,61.06
2023-03-16T07:15:31.766Z,61.74
2023-03-16T07:18:00.341Z,60.99
2023-03-16T07:20:32.503Z,60.93
2023-03-16T07:23:02.158Z,61.85
2023-03-16T07:25:29.562Z,59.87
2023-03-16T07:27:56.646Z,59.05
2023-03-16T07:30:30.461Z,61.35
2023-03-16T07:32:59.953Z,60.52
2023-03-16T07:35:28.279Z,59.72
2023-03-16T07:37:56.098Z,59.25
2023-03-16T07:40:24.907Z,60.47
2023-03-16T07:43:04.884Z,59.86
2023-03-16T07:45:36.634Z,57.27
2023-03-16T07:48:04.883Z,58.16
2023-03-16T07:50:46.961Z,57.01
2023-03-16T07:53:16.065Z,55.17
2023-03-16T07:55:50.136Z,54.80
2023-03-16T07:58:20.630Z,55.27
2023-03-16T08:00:50.515Z,54.96
2023-03-16T08:03:20.060Z,56.84
2023-03-16T08:05:48.057Z,55.56
2023-03-16T08:08:20.295Z,55.43
2023-03-16T08:10:49.900Z,54.09
2023-03-16T08:13:22.845Z,54.28
2023-03-16T08:16:02.479Z,54.83
2023-03-16T08:18:36.861Z,54.00
2023-03-16T08:21:05.289Z,55.07
2023-03-16T08:23:33.772Z,53.69
2023-03-16T08:26:01.285Z,54.83
2023-03-16T08:28:28.961Z,54.77
2023-03-16T08:30:58.641Z,54.99
2023-03-16T08:33:57.763Z,54.18
2023-03-16T08:36:29.071Z,54.84
2023-03-16T08:39:06.433Z,54.68
2023-03-16T08:41:40.755Z,56.29
2023-03-16T08:44:14.657Z,55.04
2023-03-16T08:46:42.584Z,56.21
2023-03-16T08:49:09.851Z,58.13
2023-03-16T08:51:37.457Z,57.87
2023-03-16T08:54:04.457Z,56.62
2023-03-16T08:56:32.697Z,55.24
2023-03-16T08:58:59.878Z,56.18
2023-03-16T09:01:27.636Z,55.75
2023-03-16T09:03:55.044Z,54.81
2023-03-16T09:06:22.477Z,56.85
2023-03-16T09:08:50.392Z,56.60
2023-03-16T09:11:19.602Z,56.42
2023-03-16T09:13:47.477Z,57.26
2023-03-16T09:16:16.017Z,56.31
2023-03-16T09:18:43.344Z,57.68
2023-03-16T09:21:13.334Z,56.35
2023-03-16T09:23:42.893Z,55.24
2023-03-16T09:26:12.785Z,56.98
2023-03-16T09:28:42.291Z,55.82
2023-03-16T09:31:16.784Z,58.82
2023-03-16T09:33:43.665Z,58.24
2023-03-16T09:36:14.268Z,56.40
2023-03-16T09:38:43.134Z,57.06
2023-03-16T09:41:17.230Z,55.00
2023-03-16T09:44:22.750Z,54.27
2023-03-16T09:46:50.867Z,53.24
2023-03-16T09:49:22.757Z,54.73
2023-03-16T09:52:28.201Z,50.16
2023-03-16T09:55:20.666Z,48.01
2023-03-16T09:57:51.212Z,47.69
2023-03-16T10:00:23.086Z,47.06
2023-03-16T10:03:11.395Z,46.19
2023-03-16T10:05:39.573Z,45.15
2023-03-16T10:08:06.804Z,47.07
2023-03-16T10:11:10.200Z,46.33
2023-03-16T10:13:47.740Z,44.33
2023-03-16T10:16:18.458Z,42.37
2023-03-16T10:18:49.190Z,41.17
2023-03-16T10:21:18.413Z,42.11
2023-03-16T10:23:48.714Z,40.65
2023-03-16T10:26:28.740Z,43.67
2023-03-16T10:28:55.570Z,41.79
2023-03-16T10:31:24.777Z,44.21
2023-03-16T10:34:17.866Z,43.93
2023-03-16T10:36:51.685Z,42.49
2023-03-16T10:39:21.827Z,40.96
2023-03-16T10:41:57.250Z,39.47
2023-03-16T10:44:26.867Z,40.44
2023-03-16T10:47:00.955Z,41.39
2023-03-16T10:49:30.216Z,39.38
2023-03-16T10:52:04.781Z,40.78
2023-03-16T10:54:35.720Z,39.81
2023-03-16T10:57:14.505Z,42.19
2023-03-16T10:59:49.026Z,39.53
2023-03-16T11:02:20.651Z,38.40
2023-03-16T11:04:48.056Z,41.17
2023-03-16T11:07:24.451Z,40.59
2023-03-16T11:09:59.741Z,41.80
2023-03-16T11:12:31.176Z,40.10
2023-03-16T11:15:20.141Z,39.75
2023-03-16T11:17:55.418Z,38.84
2023-03-16T11:20:28.095Z,40.34
2023-03-16T11:22:55.284Z,42.34
2023-03-16T11:25:29.114Z,41.19
2023-03-16T11:28:13.753Z,40.58
2023-03-16T11:30:44.038Z,42.86
2023-03-16T11:33:15.424Z,39.87
2023-03-16T11:35:59.438Z,40.90
2023-03-16T11:38:36.420Z,41.43
2023-03-16T11:41:16.391Z,41.71
2023-03-16T11:43:49.494Z,40.13
2023-03-16T11:46:33.870Z,38.10
2023-03-16T11:49:29.417Z,39.10
2023-03-16T11:52:20.608Z,34.93
2023-03-16T11:55:00.644Z,34.12
2023-03-16T11:58:04.268Z,33.37
2023-03-16T12:01:02.044Z,37.37
2023-03-16T12:03:59.269Z,33.73
2023-03-16T12:06:52.624Z,32.07
2023-03-16T12:09:37.927Z,32.99
2023-03-16T12:13:00.751Z,33.46
2023-03-16T12:15:36.296Z,32.75
2023-03-16T12:18:14.622Z,33.76
2023-03-16T12:20:53.219Z,29.66
2023-03-16T12:23:27.974Z,32.68
2023-03-16T12:26:00.043Z,34.41
2023-03-16T12:28:29.322Z,36.49
2023-03-16T12:31:19.380Z,36.71
2023-03-16T12:33:58.422Z,35.68
2023-03-16T12:36:56.187Z,33.77
2023-03-16T12:40:00.165Z,32.73
2023-03-16T12:42:43.646Z,32.93
2023-03-16T12:45:16.682Z,32.02
2023-03-16T12:47:57.361Z,29.51
2023-03-16T12:50:27.400Z,31.32
2023-03-16T12:52:55.347Z,30.59
2023-03-16T12:55:36.470Z,30.30
2023-03-16T12:58:07.903Z,30.72
2023-03-16T13:00:37.888Z,31.36
2023-03-16T13:03:12.397Z,31.82
2023-03-16T13:05:47.539Z,33.05
2023-03-16T13:08:19.465Z,31.28
2023-03-16T13:11:09.695Z,30.23
2023-03-16T13:13:50.569Z,30.99
2023-03-16T13:16:25.877Z,32.06
2023-03-16T13:18:54.761Z,30.15
2023-03-16T13:21:33.863Z,29.02
2023-03-16T13:24:21.606Z,31.59
2023-03-16T13:27:23.415Z,30.15
2023-03-16T13:29:55.885Z,30.83
2023-03-16T13:32:22.858Z,29.24
2023-03-16T13:34:53.690Z,29.58
2023-03-16T13:37:23.650Z,30.19
2023-03-16T13:39:59.905Z,29.61
2023-03-16T13:42:32.867Z,29.75
2023-03-16T13:45:13.229Z,28.09
2023-03-16T13:47:45.312Z,28.92
2023-03-16T13:50:21.117Z,28.08
2023-03-16T13:52:57.726Z,31.63
2023-03-16T13:55:32.374Z,29.54
2023-03-16T13:58:00.918Z,27.94
2023-03-16T14:00:34.902Z,27.23
2023-03-16T14:03:24.631Z,26.28
2023-03-16T14:05:52.656Z,28.82
2023-03-16T14:08:26.611Z,28.48
2023-03-16T14:10:59.873Z,27.17
2023-03-16T14:13:28.616Z,31.83
2023-03-16T14:16:00.419Z,29.68
2023-03-16T14:18:34.497Z,28.48
2023-03-16T14:21:10.401Z,30.56
2023-03-16T14:23:41.825Z,31.39
2023-03-16T14:26:16.345Z,29.82
2023-03-16T14:28:55.915Z,29.82
2023-03-16T14:31:34.122Z,29.33
2023-03-16T14:34:05.611Z,29.65
2023-03-16T14:36:38.545Z,27.22
2023-03-16T14:39:17.468Z,26.04
2023-03-16T14:41:45.408Z,28.47
2023-03-16T14:44:37.381Z,29.43
2023-03-16T14:47:06.350Z,28.31
2023-03-16T14:49:41.543Z,29.30
2023-03-16T14:52:20.764Z,30.25
2023-03-16T14:54:48.445Z,29.66
2023-03-16T14:57:20.162Z,28.74
2023-03-16T14:59:48.271Z,29.63
2023-03-16T15:02:23.445Z,30.64
2023-03-16T15:04:51.139Z,29.84
2023-03-16T15:07:40.844Z,31.27
2023-03-16T15:10:22.245Z,30.75
2023-03-16T15:13:04.082Z,29.80
2023-03-16T15:15:34.815Z,29.41
2023-03-16T15:18:02.136Z,29.49
2023-03-16T15:20:35.602Z,31.21
2023-03-16T15:23:04.954Z,30.09
2023-03-16T15:25:38.509Z,29.18
2023-03-16T15:28:17.686Z,28.69
2023-03-16T15:30:55.602Z,27.46
2023-03-16T15:33:25.597Z,28.40
2023-03-16T15:35:57.306Z,27.60
2023-03-16T15:38:28.589Z,28.43
2023-03-16T15:41:00.268Z,29.43
2023-03-16T15:43:31.956Z,27.30
2023-03-16T15:46:04.046Z,29.14
2023-03-16T15:48:36.325Z,29.50
2023-03-16T15:51:21.941Z,30.33
2023-03-16T15:53:59.635Z,29.02
2023-03-16T15:56:47.204Z,29.79
2023-03-16T15:59:21.264Z,29.80
2023-03-16T16:01:52.152Z,29.49
2023-03-16T16:04:23.715Z,30.11
2023-03-16T16:06:54.734Z,30.23
2023-03-16T16:09:22.653Z,30.17
2023-03-16T16:11:50.622Z,29.97
2023-03-16T16:14:23.653Z,29.48
2023-03-16T16:16:50.650Z,31.75
2023-03-16T16:19:18.946Z,30.43
2023-03-16T16:21:48.950Z,30.34
2023-03-16T16:24:19.500Z,31.64
2023-03-16T16:26:53.295Z,30.92
2023-03-16T16:29:32.193Z,30.62
2023-03-16T16:32:00.935Z,30.36
2023-03-16T16:34:30.297Z,30.63
2023-03-16T16:36:58.965Z,31.69
2023-03-16T16:39:27.776Z,32.33
2023-03-16T16:41:57.207Z,33.71
2023-03-16T16:44:32.112Z,33.53
2023-03-16T16:47:08.006Z,33.50
2023-03-16T16:49:35.778Z,33.22
2023-03-16T16:52:04.040Z,32.74
2023-03-16T16:54:37.088Z,33.70
2023-03-16T16:57:06.996Z,34.28
2023-03-16T16:59:40.782Z,34.83
2023-03-16T17:02:33.256Z,35.05
2023-03-16T17:05:00.566Z,34.92
2023-03-16T17:07:28.600Z,35.84
2023-03-16T17:09:58.606Z,37.46
2023-03-16T17:12:26.396Z,37.77
2023-03-16T17:14:54.276Z,37.73
2023-03-16T17:17:22.363Z,38.25
2023-03-16T17:19:49.775Z,38.21
2023-03-16T17:22:26.162Z,38.80
2023-03-16T17:24:56.092Z,38.90
2023-03-16T17:27:33.428Z,40.05
2023-03-16T17:30:01.891Z,40.53
2023-03-16T17:32:31.294Z,40.58
2023-03-16T17:35:00.348Z,41.02
2023-03-16T17:37:30.697Z,41.28
2023-03-16T17:39:58.125Z,40.76
2023-03-16T17:42:26.664Z,41.30
2023-03-16T17:44:54.701Z,40.96
2023-03-16T17:47:21.595Z,41.16
2023-03-16T17:49:49.182Z,40.67
2023-03-16T17:52:19.796Z,41.19
2023-03-16T17:54:49.697Z,41.08
2023-03-16T17:57:19.935Z,41.24
2023-03-16T18:00:33.503Z,41.03
2023-03-16T18:03:14.729Z,40.70
2023-03-16T18:05:42.047Z,40.36
2023-03-16T18:08:22.964Z,40.24
2023-03-16T18:10:55.935Z,41.03
2023-03-16T18:13:41.680Z,41.61
2023-03-16T18:16:34.651Z,41.31
2023-03-16T18:19:29.882Z,41.57
2023-03-16T18:22:22.318Z,41.50
2023-03-16T18:24:53.524Z,41.96
2023-03-16T18:27:23.428Z,42.28
2023-03-16T18:29:51.271Z,42.07
2023-03-16T18:32:31.293Z,43.75
2023-03-16T18:35:00.267Z,42.99
2023-03-16T18:37:29.695Z,43.09
2023-03-16T18:39:56.858Z,43.53
2023-03-16T18:42:27.921Z,43.63
2023-03-16T18:44:55.837Z,43.84
2023-03-16T18:47:32.893Z,43.56
2023-03-16T18:50:01.907Z,43.39
2023-03-16T18:52:34.746Z,43.48
2023-03-16T18:55:26.074Z,42.84
2023-03-16T18:57:56.611Z,43.08
2023-03-16T19:00:30.363Z,42.83
2023-03-16T19:03:38.267Z,42.84
2023-03-16T19:06:10.675Z,43.65
2023-03-16T19:08:39.377Z,44.87
2023-03-16T19:11:18.752Z,45.12
2023-03-16T19:13:46.415Z,45.43
2023-03-16T19:16:18.987Z,45.90
2023-03-16T19:18:46.825Z,45.85
2023-03-16T19:21:23.021Z,46.01
2023-03-16T19:24:03.012Z,46.03
2023-03-16T19:26:39.732Z,45.13
2023-03-16T19:29:07.619Z,45.95
2023-03-16T19:31:37.115Z,46.07
2023-03-16T19:34:05.367Z,45.36
2023-03-16T19:36:36.169Z,46.68
2023-03-16T19:39:04.701Z,46.30
2023-03-16T19:41:38.622Z,45.98
2023-03-16T19:44:15.877Z,45.34
2023-03-16T19:46:46.317Z,45.27
2023-03-16T19:52:19.427Z,45.09
2023-03-16T19:54:54.186Z,45.52
2023-03-16T19:57:24.390Z,45.05
2023-03-16T19:59:58.693Z,44.07
2023-03-16T20:02:29.873Z,44.81
2023-03-16T20:04:57.632Z,44.80
2023-03-16T20:07:25.967Z,44.68
2023-03-16T20:09:59.544Z,44.52
2023-03-16T20:12:30.448Z,44.32
2023-03-16T20:14:59.952Z,44.49
2023-03-16T20:17:30.688Z,44.07
2023-03-16T20:19:57.899Z,43.01
2023-03-16T20:22:28.784Z,44.06
2023-03-16T20:24:58.198Z,43.08
2023-03-16T20:27:27.847Z,42.97
2023-03-16T20:29:55.314Z,42.94
2023-03-16T20:32:26.098Z,43.88
2023-03-16T20:34:54.605Z,42.23
2023-03-16T20:37:26.434Z,42.29
2023-03-16T20:39:55.915Z,42.37
2023-03-16T20:42:35.246Z,42.41
2023-03-16T20:45:02.637Z,41.88
2023-03-16T20:47:30.305Z,42.48
2023-03-16T20:49:57.678Z,43.30
2023-03-16T20:52:30.701Z,43.72
2023-03-16T20:54:58.881Z,43.87
2023-03-16T20:57:29.337Z,44.22
2023-03-16T20:59:57.106Z,43.96
2023-03-16T21:02:30.999Z,43.92
2023-03-16T21:05:01.180Z,43.62
2023-03-16T21:07:28.151Z,43.62
2023-03-16T21:09:59.729Z,44.16
2023-03-16T21:12:30.735Z,44.56
2023-03-16T21:14:58.701Z,43.74
2023-03-16T21:17:31.466Z,44.14
2023-03-16T21:19:59.960Z,44.63
2023-03-16T21:22:29.459Z,44.03
2023-03-16T21:24:56.880Z,44.78
2023-03-16T21:27:34.318Z,45.33
2023-03-16T21:30:17.773Z,44.73
2023-03-16T21:32:54.620Z,44.59
2023-03-16T21:35:32.135Z,45.10
2023-03-16T21:38:01.327Z,45.57
2023-03-16T21:40:29.177Z,44.59
2023-03-16T21:43:00.873Z,44.44
2023-03-16T21:45:28.057Z,44.10
2023-03-16T21:47:56.111Z,44.58
2023-03-16T21:50:28.088Z,44.29
2023-03-16T21:52:55.502Z,44.50
2023-03-16T21:55:28.128Z,44.22
2023-03-16T21:57:56.732Z,44.90
2023-03-16T22:00:25.756Z,44.33
2023-03-16T22:02:55.169Z,44.34
2023-03-16T22:05:42.905Z,44.88
2023-03-16T22:08:32.692Z,44.95
2023-03-16T22:11:01.496Z,44.74
2023-03-16T22:13:28.723Z,45.18
2023-03-16T22:15:58.626Z,44.96
2023-03-16T22:18:35.934Z,44.92
2023-03-16T22:21:20.183Z,44.73
2023-03-16T22:23:47.862Z,45.74
2023-03-16T22:26:19.036Z,45.74
2023-03-16T22:28:46.779Z,46.06
2023-03-16T22:31:18.018Z,45.71
2023-03-16T22:33:50.317Z,46.85
2023-03-16T22:36:20.269Z,47.35
2023-03-16T22:39:01.563Z,47.11
2023-03-16T22:41:31.694Z,47.07
2023-03-16T22:43:59.671Z,46.94
2023-03-16T22:46:28.630Z,46.81
2023-03-16T22:48:56.301Z,46.23
2023-03-16T22:51:29.583Z,46.60
2023-03-16T22:54:03.501Z,45.70
2023-03-16T22:56:32.399Z,45.89
2023-03-16T22:59:03.293Z,46.22
2023-03-16T23:01:43.970Z,46.18
2023-03-16T23:04:20.227Z,46.31
2023-03-16T23:06:49.880Z,46.32
2023-03-16T23:09:18.989Z,46.62
2023-03-16T23:11:49.104Z,46.62
2023-03-16T23:14:19.856Z,46.36
2023-03-16T23:16:48.610Z,46.69
2023-03-16T23:19:25.624Z,46.22
2023-03-16T23:22:05.769Z,45.30
2023-03-16T23:24:34.273Z,45.51
2023-03-16T23:27:02.418Z,45.19
2023-03-16T23:29:32.328Z,46.13
2023-03-16T23:31:59.295Z,45.76
2023-03-16T23:34:26.452Z,46.56
2023-03-16T23:36:53.508Z,47.17
2023-03-16T23:39:20.800Z,46.01
2023-03-16T23:41:59.308Z,46.10
2023-03-16T23:44:29.386Z,45.67
2023-03-16T23:47:00.803Z,45.61
2023-03-16T23:49:32.778Z,44.88
2023-03-16T23:52:25.591Z,45.12
2023-03-16T23:54:55.159Z,44.87
2023-03-16T23:57:22.362Z,44.65
2023-03-16T23:59:49.653Z,44.61
